Time;durP1;ratioP1;P1;durP2;ratioP2;P2;SDS_P1;SDS_P2;PMS_P1;PMS_P2;Temp;Humidity;BMP_temperature;BMP_pressure;BME280_temperature;BME280_humidity;BME280_pressure;Samples;Min_cycle;Max_cycle;Signal;HPM_P1;HPM_P2
2021/01/20 00:01:31;;;;;;;0.93;0.67;;;19.30;47.00;;;;;;4970302;28;20481;-69
2021/01/20 00:03:57;;;;;;;1.10;1.00;;;19.30;47.10;;;;;;4969927;28;20906;-68
2021/01/20 00:06:23;;;;;;;0.90;0.90;;;19.30;47.30;;;;;;4968028;28;20511;-68
2021/01/20 00:08:49;;;;;;;0.70;0.60;;;19.30;47.30;;;;;;4968208;28;20988;-69
2021/01/20 00:11:15;;;;;;;0.90;0.90;;;19.30;47.30;;;;;;4967815;28;20485;-70
2021/01/20 00:13:41;;;;;;;0.87;0.87;;;19.30;47.30;;;;;;4968241;28;20568;-69
2021/01/20 00:16:08;;;;;;;0.73;0.73;;;19.30;47.30;;;;;;4971225;28;20497;-68
2021/01/20 00:18:35;;;;;;;0.83;0.83;;;19.30;47.20;;;;;;4968350;28;20481;-67
2021/01/20 00:21:01;;;;;;;0.80;0.80;;;19.40;47.20;;;;;;4969629;28;20478;-67
2021/01/20 00:23:27;;;;;;;0.90;0.90;;;19.30;47.10;;;;;;4967218;28;20537;-67
2021/01/20 00:25:53;;;;;;;0.90;0.90;;;19.40;47.20;;;;;;4969064;28;20497;-68
2021/01/20 00:28:19;;;;;;;0.90;0.90;;;19.30;47.20;;;;;;4971489;28;20498;-67
2021/01/20 00:30:45;;;;;;;1.20;1.20;;;19.30;47.10;;;;;;4968694;28;20849;-67
2021/01/20 00:33:13;;;;;;;1.47;0.80;;;19.30;47.10;;;;;;4970459;28;20837;-68
2021/01/20 00:35:40;;;;;;;1.03;1.03;;;19.30;47.10;;;;;;4969906;28;20481;-68
2021/01/20 00:38:06;;;;;;;0.83;0.83;;;19.40;47.10;;;;;;4969156;28;20827;-68
2021/01/20 00:40:32;;;;;;;1.03;0.93;;;19.40;47.00;;;;;;4969757;28;20536;-68
2021/01/20 00:42:58;;;;;;;0.80;0.80;;;19.40;46.80;;;;;;4970019;28;20490;-69
2021/01/20 00:45:24;;;;;;;1.00;1.00;;;19.50;46.80;;;;;;4958735;28;20505;-68
2021/01/20 00:47:50;;;;;;;0.90;0.90;;;19.50;46.70;;;;;;4968762;28;21536;-69
2021/01/20 00:50:16;;;;;;;0.80;0.80;;;19.60;46.70;;;;;;4972344;28;20493;-68
2021/01/20 00:52:43;;;;;;;1.10;1.10;;;19.60;46.50;;;;;;4973001;28;20497;-68
2021/01/20 00:55:12;;;;;;;1.57;1.20;;;19.60;46.30;;;;;;4976823;28;20485;-68
2021/01/20 00:57:38;;;;;;;0.97;0.97;;;19.60;46.30;;;;;;4972274;28;20466;-69
2021/01/20 01:00:06;;;;;;;1.00;1.00;;;19.60;46.30;;;;;;4973288;28;21597;-68
2021/01/20 01:02:32;;;;;;;0.97;0.97;;;19.70;46.40;;;;;;4962878;28;21487;-68
2021/01/20 01:04:58;;;;;;;0.90;0.90;;;19.60;46.30;;;;;;4972547;28;20544;-68
2021/01/20 01:07:24;;;;;;;1.10;1.00;;;19.70;46.40;;;;;;4971741;28;20493;-68
2021/01/20 01:09:51;;;;;;;1.10;1.10;;;19.60;46.30;;;;;;4974031;28;20477;-69
2021/01/20 01:12:17;;;;;;;0.87;0.87;;;19.50;46.40;;;;;;4970821;28;20909;-68
2021/01/20 01:14:43;;;;;;;0.80;0.80;;;19.50;46.40;;;;;;4962666;28;20507;-69
2021/01/20 01:17:09;;;;;;;1.03;1.03;;;19.50;46.50;;;;;;4972362;28;20548;-69
2021/01/20 01:19:36;;;;;;;0.77;0.77;;;19.50;46.70;;;;;;4962188;28;20478;-68
2021/01/20 01:22:02;;;;;;;0.90;0.90;;;19.50;46.80;;;;;;4972245;28;20516;-69
2021/01/20 01:24:28;;;;;;;0.80;0.80;;;19.50;46.80;;;;;;4971609;28;20504;-69
2021/01/20 01:26:55;;;;;;;0.80;0.80;;;19.40;46.70;;;;;;4969301;28;20489;-68
2021/01/20 01:29:21;;;;;;;0.90;0.90;;;19.40;46.70;;;;;;4973939;28;20518;-68
2021/01/20 01:31:47;;;;;;;0.93;0.93;;;19.40;46.70;;;;;;4971815;28;20478;-69
2021/01/20 01:34:14;;;;;;;1.10;1.00;;;19.40;46.70;;;;;;4977285;28;20493;-67
2021/01/20 01:36:40;;;;;;;1.70;1.60;;;19.40;46.70;;;;;;4972062;28;20580;-68
2021/01/20 01:39:06;;;;;;;1.17;1.17;;;19.40;46.70;;;;;;4962312;28;20486;-67
2021/01/20 01:41:32;;;;;;;1.30;1.30;;;19.40;46.60;;;;;;4973555;28;20485;-68
2021/01/20 01:43:59;;;;;;;1.40;1.30;;;19.40;47.00;;;;;;4971338;28;22096;-68
2021/01/20 01:46:26;;;;;;;0.77;0.77;;;19.40;46.60;;;;;;4963120;28;20865;-67
2021/01/20 01:48:52;;;;;;;2.40;1.30;;;19.40;46.60;;;;;;4961048;28;20493;-67
2021/01/20 01:51:19;;;;;;;1.13;1.13;;;19.40;46.60;;;;;;4971095;28;20493;-68
2021/01/20 01:53:45;;;;;;;4.93;1.30;;;19.50;46.60;;;;;;4962788;28;20481;-68
2021/01/20 01:56:11;;;;;;;1.40;1.30;;;19.40;46.50;;;;;;4972980;28;20490;-68
2021/01/20 01:58:37;;;;;;;1.30;1.30;;;19.50;46.50;;;;;;4973131;28;20486;-68
2021/01/20 02:01:04;;;;;;;1.67;1.57;;;19.50;46.40;;;;;;4969455;28;20556;-68
2021/01/20 02:03:30;;;;;;;1.50;1.50;;;19.50;46.40;;;;;;4973183;28;21061;-68
2021/01/20 02:05:56;;;;;;;1.17;1.03;;;19.50;46.50;;;;;;4959465;28;20520;-68
2021/01/20 02:08:22;;;;;;;1.13;1.13;;;19.40;46.40;;;;;;4970540;28;20497;-68
2021/01/20 02:10:51;;;;;;;1.60;1.60;;;19.40;46.40;;;;;;4970607;28;20489;-68
2021/01/20 02:13:25;;;;;;;1.50;1.17;;;19.40;46.40;;;;;;4970402;28;20489;-69
2021/01/20 02:16:00;;;;;;;1.50;1.50;;;19.40;46.50;;;;;;4969808;28;20477;-69
2021/01/20 02:18:28;;;;;;;1.40;1.30;;;19.40;47.30;;;;;;4974148;28;20489;-69
2021/01/20 02:21:18;;;;;;;2.10;2.00;;;19.40;46.50;;;;;;4970723;28;20486;-67
2021/01/20 02:23:45;;;;;;;1.53;1.43;;;19.40;46.60;;;;;;4970211;28;20502;-68
2021/01/20 02:26:28;;;;;;;1.10;1.10;;;19.40;46.40;;;;;;4971372;28;20489;-68
2021/01/20 02:29:07;;;;;;;2.40;1.53;;;19.40;46.50;;;;;;4962048;28;20473;-68
2021/01/20 02:31:34;;;;;;;1.73;1.73;;;19.30;46.30;;;;;;4961461;28;20622;-67
2021/01/20 02:34:02;;;;;;;1.53;1.53;;;19.40;46.80;;;;;;4970817;28;20498;-68
2021/01/20 02:36:28;;;;;;;3.10;1.93;;;19.30;46.40;;;;;;4969895;28;20497;-68
2021/01/20 02:38:54;;;;;;;1.40;1.30;;;19.40;47.20;;;;;;4970154;28;20490;-67
2021/01/20 02:41:24;;;;;;;1.70;1.60;;;19.30;46.20;;;;;;4971599;28;20490;-68
2021/01/20 02:43:51;;;;;;;1.60;1.50;;;19.30;46.30;;;;;;4960651;28;21142;-68
2021/01/20 02:46:17;;;;;;;4.60;1.90;;;19.40;46.30;;;;;;4970504;28;20498;-68
2021/01/20 02:48:44;;;;;;;1.73;1.67;;;19.30;46.20;;;;;;4970332;28;20485;-68
2021/01/20 02:51:11;;;;;;;4.43;1.60;;;19.40;46.10;;;;;;4971693;28;20504;-67
2021/01/20 02:53:37;;;;;;;1.80;1.70;;;19.40;46.10;;;;;;4971687;28;21196;-68
2021/01/20 02:56:05;;;;;;;2.40;2.20;;;19.40;46.10;;;;;;4970230;28;20601;-67
2021/01/20 02:58:32;;;;;;;2.00;1.90;;;19.40;46.10;;;;;;4972810;28;20485;-68
2021/01/20 03:00:59;;;;;;;2.00;1.90;;;19.40;46.10;;;;;;4970093;28;20570;-68
2021/01/20 03:03:25;;;;;;;1.87;1.77;;;19.40;46.10;;;;;;4991686;28;20479;-68
2021/01/20 03:05:52;;;;;;;2.07;1.97;;;19.40;46.10;;;;;;4970971;28;21169;-67
2021/01/20 03:08:18;;;;;;;2.30;2.20;;;19.40;46.10;;;;;;4970141;28;20501;-68
2021/01/20 03:10:44;;;;;;;1.97;1.87;;;19.40;46.10;;;;;;4973102;28;20490;-68
2021/01/20 03:13:11;;;;;;;2.10;2.00;;;19.50;46.20;;;;;;4971854;28;20486;-67
2021/01/20 03:15:38;;;;;;;2.50;2.37;;;19.50;47.00;;;;;;4990075;28;20527;-68
2021/01/20 03:18:05;;;;;;;2.17;2.07;;;19.50;46.20;;;;;;4999421;28;20469;-68
2021/01/20 03:20:31;;;;;;;3.47;2.40;;;19.50;46.20;;;;;;4989306;28;20559;-68
2021/01/20 03:22:58;;;;;;;1.60;1.50;;;19.50;46.10;;;;;;4991176;28;20477;-67
2021/01/20 03:25:24;;;;;;;2.00;1.90;;;19.50;46.20;;;;;;4989593;28;20481;-68
2021/01/20 03:27:50;;;;;;;2.13;1.80;;;19.50;46.10;;;;;;4989215;28;20478;-68
2021/01/20 03:30:18;;;;;;;3.30;2.37;;;19.50;46.10;;;;;;4990299;28;20477;-68
2021/01/20 03:32:44;;;;;;;2.10;2.00;;;19.50;46.20;;;;;;4988608;28;20542;-68
2021/01/20 03:35:11;;;;;;;2.30;2.20;;;19.50;46.20;;;;;;4992726;28;20480;-67
2021/01/20 03:37:37;;;;;;;2.90;2.70;;;19.50;46.20;;;;;;4980013;28;20476;-68
2021/01/20 03:40:05;;;;;;;3.03;2.83;;;19.50;46.20;;;;;;4990400;28;20480;-68
2021/01/20 03:42:32;;;;;;;3.23;2.40;;;19.40;46.10;;;;;;4988027;28;20493;-67
2021/01/20 03:44:58;;;;;;;2.13;2.03;;;19.50;46.20;;;;;;4993391;28;22096;-68
2021/01/20 03:47:24;;;;;;;2.40;2.23;;;19.50;46.20;;;;;;4991429;28;20493;-67
2021/01/20 03:49:50;;;;;;;2.67;2.50;;;19.50;46.10;;;;;;4988993;28;21005;-68
2021/01/20 03:52:17;;;;;;;2.93;2.73;;;19.60;46.40;;;;;;4991817;28;20493;-68
2021/01/20 03:54:43;;;;;;;3.10;2.83;;;19.60;46.00;;;;;;4984908;28;20980;-68
2021/01/20 03:57:10;;;;;;;3.70;2.23;;;19.60;46.00;;;;;;4991574;28;21590;-69
2021/01/20 03:59:36;;;;;;;3.60;3.30;;;19.60;46.00;;;;;;4990247;28;20548;-69
2021/01/20 04:02:05;;;;;;;2.97;2.77;;;19.60;46.00;;;;;;4988714;28;20492;-68
2021/01/20 04:04:31;;;;;;;4.60;2.97;;;19.60;46.00;;;;;;4991802;28;22018;-68
2021/01/20 04:06:58;;;;;;;3.00;2.80;;;19.50;45.90;;;;;;4984579;28;20473;-66
2021/01/20 04:09:24;;;;;;;2.27;2.17;;;19.50;45.90;;;;;;4989478;28;20956;-67
2021/01/20 04:11:50;;;;;;;3.63;3.33;;;19.50;45.90;;;;;;4977042;28;20569;-69
2021/01/20 04:14:17;;;;;;;3.60;3.30;;;19.40;46.10;;;;;;4988386;28;20483;-68
2021/01/20 04:16:44;;;;;;;4.10;3.00;;;19.30;46.00;;;;;;4985468;28;20996;-69
2021/01/20 04:19:10;;;;;;;3.50;3.20;;;19.40;46.00;;;;;;4990186;28;20499;-69
2021/01/20 04:21:36;;;;;;;2.20;2.10;;;19.50;45.90;;;;;;4989120;28;20491;-68
2021/01/20 04:24:02;;;;;;;3.17;2.93;;;19.50;45.90;;;;;;4993410;28;20485;-68
2021/01/20 04:26:28;;;;;;;2.70;2.50;;;19.50;45.80;;;;;;4992425;28;20868;-68
2021/01/20 04:28:55;;;;;;;2.87;2.60;;;19.50;45.60;;;;;;4995067;28;20473;-69
2021/01/20 04:31:22;;;;;;;2.60;2.40;;;19.60;45.60;;;;;;4993477;28;20523;-68
2021/01/20 04:33:48;;;;;;;3.10;2.90;;;19.60;45.70;;;;;;4999224;28;20484;-68
2021/01/20 04:36:14;;;;;;;3.57;3.00;;;19.50;45.80;;;;;;4995027;28;20510;-69
2021/01/20 04:38:40;;;;;;;4.23;3.43;;;19.50;45.80;;;;;;4993991;28;20492;-68
2021/01/20 04:41:06;;;;;;;3.83;3.13;;;19.50;45.90;;;;;;4993055;28;20477;-68
2021/01/20 04:43:32;;;;;;;2.70;2.57;;;19.50;45.90;;;;;;4992772;28;20496;-68
2021/01/20 04:45:59;;;;;;;3.50;3.30;;;19.40;45.80;;;;;;4982180;28;20497;-68
2021/01/20 04:48:31;;;;;;;2.60;2.50;;;19.40;45.80;;;;;;4992551;28;21009;-68
2021/01/20 04:50:57;;;;;;;2.67;2.50;;;19.40;45.80;;;;;;4992917;28;20477;-67
2021/01/20 04:53:23;;;;;;;2.97;2.77;;;19.40;46.00;;;;;;4990875;28;20484;-68
2021/01/20 04:55:49;;;;;;;4.10;2.93;;;19.40;45.90;;;;;;4992185;28;20472;-68
2021/01/20 04:58:16;;;;;;;3.20;2.40;;;19.40;45.90;;;;;;4993433;28;20477;-67
2021/01/20 05:00:42;;;;;;;2.70;2.50;;;19.40;46.00;;;;;;4991763;28;20480;-67
2021/01/20 05:03:09;;;;;;;2.93;2.53;;;19.40;45.90;;;;;;4991011;28;21354;-67
2021/01/20 05:05:36;;;;;;;3.03;2.73;;;19.40;45.80;;;;;;4983942;28;20988;-68
2021/01/20 05:08:02;;;;;;;4.07;3.10;;;19.40;45.90;;;;;;4993197;28;21426;-69
2021/01/20 05:10:28;;;;;;;2.77;2.60;;;19.40;45.80;;;;;;4991890;28;20484;-69
2021/01/20 05:12:54;;;;;;;3.07;2.87;;;19.40;46.40;;;;;;4994881;28;20482;-68
2021/01/20 05:15:29;;;;;;;3.27;3.00;;;19.50;45.60;;;;;;4992259;28;20516;-69
2021/01/20 05:17:56;;;;;;;2.90;2.70;;;19.50;45.50;;;;;;4990754;28;20484;-69
2021/01/20 05:20:26;;;;;;;2.67;2.57;;;19.50;45.40;;;;;;4982751;28;20885;-69
2021/01/20 05:22:56;;;;;;;2.17;2.07;;;19.50;45.40;;;;;;4993959;28;20942;-68
2021/01/20 05:25:26;;;;;;;3.13;2.83;;;19.50;45.30;;;;;;4993474;28;20574;-69
2021/01/20 05:27:53;;;;;;;3.40;3.20;;;19.50;45.30;;;;;;4992571;28;20468;-69
2021/01/20 05:30:20;;;;;;;2.77;2.60;;;19.60;45.40;;;;;;4989970;28;21076;-69
2021/01/20 05:32:54;;;;;;;2.27;2.17;;;19.50;45.30;;;;;;4992119;28;20507;-68
2021/01/20 05:35:20;;;;;;;2.87;2.40;;;19.60;45.30;;;;;;4989765;28;20493;-68
2021/01/20 05:37:47;;;;;;;4.13;2.80;;;19.70;45.20;;;;;;4981963;28;20476;-69
2021/01/20 05:40:15;;;;;;;4.20;2.50;;;19.70;45.00;;;;;;4991466;28;20489;-67
2021/01/20 05:42:49;;;;;;;2.50;2.40;;;19.70;45.00;;;;;;4990923;28;20473;-67
2021/01/20 05:45:16;;;;;;;3.83;2.40;;;19.70;44.80;;;;;;4990503;28;20480;-67
2021/01/20 05:48:07;;;;;;;2.33;2.20;;;19.80;44.80;;;;;;4991927;28;20867;-68
2021/01/20 05:50:33;;;;;;;2.57;2.37;;;19.70;44.80;;;;;;4992190;28;20507;-68
2021/01/20 05:53:17;;;;;;;2.00;1.77;;;19.70;44.90;;;;;;4989005;28;20985;-67
2021/01/20 05:55:44;;;;;;;2.83;2.60;;;19.60;45.70;;;;;;4984880;28;20480;-68
2021/01/20 05:58:10;;;;;;;2.17;1.97;;;19.60;45.00;;;;;;4991989;28;21016;-68
2021/01/20 06:00:36;;;;;;;2.33;2.20;;;19.50;45.00;;;;;;4991391;28;21050;-68
2021/01/20 06:03:02;;;;;;;2.70;1.83;;;19.50;45.80;;;;;;4994576;28;20999;-67
2021/01/20 06:05:29;;;;;;;2.30;2.20;;;19.50;45.00;;;;;;4991256;28;20611;-67
2021/01/20 06:07:55;;;;;;;2.70;2.53;;;19.50;45.20;;;;;;4991202;28;20485;-68
2021/01/20 06:10:21;;;;;;;1.57;1.47;;;19.50;45.30;;;;;;4983255;28;20515;-68
2021/01/20 06:12:48;;;;;;;2.40;2.30;;;19.50;45.40;;;;;;4990083;28;20488;-68
2021/01/20 06:15:15;;;;;;;3.73;1.97;;;19.50;45.10;;;;;;4991421;28;20489;-68
2021/01/20 06:17:42;;;;;;;2.03;1.93;;;19.50;45.00;;;;;;4993694;28;21474;-69
2021/01/20 06:20:09;;;;;;;3.80;2.47;;;19.50;44.80;;;;;;4992340;28;20496;-68
2021/01/20 06:22:40;;;;;;;5.40;3.00;;;19.60;44.80;;;;;;4986656;28;20577;-68
2021/01/20 06:25:08;;;;;;;2.27;2.17;;;19.60;44.80;;;;;;4991714;28;20475;-68
2021/01/20 06:27:40;;;;;;;3.67;2.40;;;19.60;44.90;;;;;;4987276;28;20481;-69
2021/01/20 06:30:09;;;;;;;3.10;1.97;;;19.60;44.80;;;;;;4988279;28;20499;-68
2021/01/20 06:32:36;;;;;;;2.70;2.50;;;19.60;44.70;;;;;;4986472;28;20489;-67
2021/01/20 06:35:02;;;;;;;3.70;2.77;;;19.60;44.60;;;;;;4991051;28;20481;-68
2021/01/20 06:37:36;;;;;;;2.40;2.30;;;19.70;44.70;;;;;;4974579;28;21065;-68
2021/01/20 06:40:04;;;;;;;3.33;2.47;;;19.60;44.60;;;;;;4987495;28;20476;-68
2021/01/20 06:42:31;;;;;;;2.23;1.97;;;19.60;44.70;;;;;;4987082;28;20494;-67
2021/01/20 06:45:14;;;;;;;2.40;1.97;;;19.60;44.70;;;;;;4987691;28;20473;-67
2021/01/20 06:48:02;;;;;;;6.33;2.30;;;19.50;45.30;;;;;;4976525;28;20499;-67
2021/01/20 06:50:29;;;;;;;2.63;2.20;;;19.50;45.20;;;;;;4985661;28;20496;-67
2021/01/20 06:53:01;;;;;;;2.20;2.00;;;19.50;45.10;;;;;;4982350;28;20485;-67
2021/01/20 06:55:31;;;;;;;3.90;2.80;;;19.50;45.10;;;;;;4988939;28;20915;-67
2021/01/20 06:58:18;;;;;;;2.73;2.03;;;19.60;45.20;;;;;;4991043;28;20565;-67
2021/01/20 07:01:10;;;;;;;2.07;1.93;;;19.50;45.10;;;;;;4979380;28;20487;-67
2021/01/20 07:03:40;;;;;;;6.37;2.17;;;19.50;45.10;;;;;;4994856;28;20488;-67
2021/01/20 07:06:39;;;;;;;2.43;2.33;;;19.60;45.20;;;;;;4990672;28;20477;-67
2021/01/20 07:09:06;;;;;;;2.13;1.97;;;19.50;45.10;;;;;;4988461;28;20477;-67
2021/01/20 07:11:32;;;;;;;3.57;2.07;;;19.50;45.20;;;;;;4982967;28;21083;-67
2021/01/20 07:13:58;;;;;;;3.20;1.97;;;19.40;45.40;;;;;;4987186;28;20908;-67
2021/01/20 07:16:25;;;;;;;2.23;2.00;;;19.40;45.60;;;;;;4991020;28;20559;-67
2021/01/20 07:18:52;;;;;;;1.80;1.70;;;19.30;45.70;;;;;;4987927;28;20485;-68
2021/01/20 07:21:19;;;;;;;1.70;1.70;;;19.30;45.70;;;;;;4994956;28;20905;-67
2021/01/20 07:23:45;;;;;;;1.70;1.60;;;19.40;45.70;;;;;;4991784;28;20487;-68
2021/01/20 07:26:13;;;;;;;1.90;1.80;;;19.40;45.70;;;;;;4989541;28;21549;-67
2021/01/20 07:28:39;;;;;;;1.67;1.57;;;19.40;45.60;;;;;;4997523;28;20464;-67
2021/01/20 07:31:10;;;;;;;1.73;1.63;;;19.40;45.70;;;;;;4986986;28;20477;-67
2021/01/20 07:33:38;;;;;;;1.90;1.57;;;19.50;46.10;;;;;;4988382;28;20520;-67
2021/01/20 07:36:15;;;;;;;2.50;1.97;;;19.50;45.80;;;;;;4989783;28;20484;-67
2021/01/20 07:38:43;;;;;;;2.20;1.90;;;19.50;45.90;;;;;;4981843;28;21076;-67
2021/01/20 07:41:13;;;;;;;1.53;1.43;;;19.50;45.80;;;;;;4989939;28;20968;-67
2021/01/20 07:43:39;;;;;;;2.40;1.87;;;19.50;45.70;;;;;;4976638;28;20469;-67
2021/01/20 07:46:13;;;;;;;2.20;1.63;;;19.60;45.80;;;;;;4987496;28;20485;-68
2021/01/20 07:48:40;;;;;;;2.70;2.20;;;19.50;45.70;;;;;;4978537;28;20542;-68
2021/01/20 07:51:06;;;;;;;1.80;1.70;;;19.50;45.80;;;;;;4994934;28;21592;-68
2021/01/20 07:53:32;;;;;;;1.77;1.60;;;19.50;45.70;;;;;;4986771;28;20532;-68
2021/01/20 07:55:58;;;;;;;3.80;2.03;;;19.40;45.70;;;;;;4983770;28;20488;-69
2021/01/20 07:58:26;;;;;;;3.43;2.10;;;19.40;45.80;;;;;;4990856;28;20485;-67
2021/01/20 08:00:52;;;;;;;2.07;1.87;;;19.40;46.00;;;;;;4991490;28;20492;-66
2021/01/20 08:03:30;;;;;;;2.43;1.80;;;19.40;45.80;;;;;;4990065;28;20484;-67
2021/01/20 08:05:57;;;;;;;2.00;1.90;;;19.50;46.00;;;;;;4991715;28;20547;-68
2021/01/20 08:08:23;;;;;;;2.30;2.10;;;19.50;45.80;;;;;;4983629;28;20492;-68
2021/01/20 08:10:49;;;;;;;1.67;1.57;;;19.60;45.80;;;;;;4994588;28;20988;-67
2021/01/20 08:13:15;;;;;;;1.60;1.50;;;19.60;45.80;;;;;;4989571;28;20910;-67
2021/01/20 08:15:42;;;;;;;1.30;1.20;;;19.60;45.80;;;;;;4990283;28;20892;-68
2021/01/20 08:18:10;;;;;;;2.13;2.00;;;19.50;45.70;;;;;;4990817;28;21335;-67
2021/01/20 08:20:36;;;;;;;2.17;2.07;;;19.50;45.60;;;;;;4992648;28;20560;-67
2021/01/20 08:23:05;;;;;;;1.77;1.67;;;19.50;45.80;;;;;;4990944;28;20488;-67
2021/01/20 08:25:31;;;;;;;1.80;1.70;;;19.50;45.90;;;;;;4991249;28;21018;-68
2021/01/20 08:28:10;;;;;;;2.10;2.00;;;19.40;46.00;;;;;;4995350;28;20847;-68
2021/01/20 08:30:36;;;;;;;2.20;1.50;;;19.40;45.90;;;;;;4990143;28;20495;-68
2021/01/20 08:33:02;;;;;;;1.20;1.20;;;19.40;46.10;;;;;;4995085;28;20483;-68
2021/01/20 08:35:29;;;;;;;1.30;1.30;;;19.30;46.10;;;;;;4990524;28;20480;-68
2021/01/20 08:37:55;;;;;;;1.50;1.43;;;19.30;46.00;;;;;;4990247;28;20481;-68
2021/01/20 08:40:22;;;;;;;1.93;1.83;;;19.30;46.00;;;;;;4992904;28;20495;-68
2021/01/20 08:42:48;;;;;;;1.67;1.57;;;19.30;46.00;;;;;;4986762;28;20480;-68
2021/01/20 08:45:16;;;;;;;2.47;2.23;;;19.30;46.00;;;;;;4992592;28;20565;-68
2021/01/20 08:47:46;;;;;;;2.53;1.70;;;19.30;46.00;;;;;;4990962;28;20491;-67
2021/01/20 08:50:13;;;;;;;1.73;1.50;;;19.30;46.00;;;;;;4974147;28;20483;-67
2021/01/20 08:52:43;;;;;;;1.73;1.63;;;19.30;46.10;;;;;;4977165;28;20479;-67
2021/01/20 08:55:10;;;;;;;2.47;1.83;;;19.30;46.00;;;;;;4982495;28;21035;-68
2021/01/20 08:57:37;;;;;;;1.60;1.50;;;19.30;46.00;;;;;;4994346;28;20575;-67
2021/01/20 09:00:04;;;;;;;1.37;1.37;;;19.30;46.00;;;;;;4993246;28;20478;-68
2021/01/20 09:02:31;;;;;;;2.23;2.03;;;19.30;46.00;;;;;;4991907;28;20488;-68
2021/01/20 09:04:57;;;;;;;2.30;1.60;;;19.30;46.10;;;;;;4992016;28;20542;-68
2021/01/20 09:07:23;;;;;;;1.43;1.33;;;19.30;46.00;;;;;;4991811;28;20580;-68
2021/01/20 09:09:49;;;;;;;1.60;1.60;;;19.30;46.00;;;;;;4990564;28;20477;-68
2021/01/20 09:12:15;;;;;;;1.63;1.53;;;19.30;46.00;;;;;;4976417;28;20508;-67
2021/01/20 09:14:42;;;;;;;1.53;1.50;;;19.40;45.90;;;;;;4989183;28;20492;-66
2021/01/20 09:17:08;;;;;;;2.13;2.03;;;19.40;45.70;;;;;;4989332;28;21168;-67
2021/01/20 09:19:34;;;;;;;1.50;1.50;;;19.40;45.60;;;;;;4988347;28;21491;-67
2021/01/20 09:22:01;;;;;;;1.30;1.30;;;19.50;45.60;;;;;;4988546;28;20492;-67
2021/01/20 09:24:27;;;;;;;1.37;1.33;;;19.50;45.50;;;;;;4990085;28;20497;-67
2021/01/20 09:26:53;;;;;;;1.77;1.67;;;19.50;45.50;;;;;;4990147;28;21093;-67
2021/01/20 09:29:20;;;;;;;1.67;1.57;;;19.60;45.90;;;;;;4989552;28;20617;-67
2021/01/20 09:31:47;;;;;;;5.80;1.70;;;19.60;45.40;;;;;;4987079;28;20571;-67
2021/01/20 09:34:13;;;;;;;1.33;1.23;;;19.60;45.20;;;;;;4988448;28;21048;-67
2021/01/20 09:36:39;;;;;;;1.43;1.43;;;19.60;45.20;;;;;;4977575;28;21340;-67
2021/01/20 09:39:05;;;;;;;1.60;1.50;;;19.70;45.10;;;;;;4990077;28;20575;-67
2021/01/20 09:41:31;;;;;;;1.40;1.30;;;19.70;45.00;;;;;;4983951;28;20863;-68
2021/01/20 09:43:57;;;;;;;1.47;1.47;;;19.70;45.00;;;;;;4988323;28;20493;-67
2021/01/20 09:46:24;;;;;;;1.80;1.70;;;19.70;44.90;;;;;;4978533;28;20501;-67
2021/01/20 09:48:51;;;;;;;1.77;1.67;;;19.70;44.90;;;;;;4962582;28;568305;-68
2021/01/20 09:51:17;;;;;;;1.60;1.50;;;19.70;44.90;;;;;;4999227;28;20495;-67
2021/01/20 09:53:43;;;;;;;1.40;1.40;;;19.70;45.00;;;;;;4978402;28;20476;-67
2021/01/20 09:56:09;;;;;;;1.90;1.80;;;19.70;45.10;;;;;;4989536;28;20534;-67
2021/01/20 09:58:39;;;;;;;1.00;1.00;;;19.70;45.00;;;;;;4991283;28;20478;-67
2021/01/20 10:01:06;;;;;;;1.70;1.60;;;19.80;45.10;;;;;;4988703;28;21027;-67
2021/01/20 10:03:32;;;;;;;2.10;1.73;;;19.80;45.10;;;;;;4989967;28;20539;-68
2021/01/20 10:05:59;;;;;;;10.00;2.00;;;19.80;45.20;;;;;;4989515;28;20912;-67
2021/01/20 10:08:25;;;;;;;2.17;2.07;;;19.80;47.00;;;;;;4981546;28;21515;-67
2021/01/20 10:10:51;;;;;;;4.93;2.03;;;19.80;46.40;;;;;;5007593;28;20480;-66
2021/01/20 10:13:19;;;;;;;1.40;1.33;;;19.80;46.00;;;;;;4986488;28;20499;-67
2021/01/20 10:15:45;;;;;;;9.40;2.47;;;19.70;45.90;;;;;;4989156;28;21048;-68
2021/01/20 10:18:11;;;;;;;6.87;1.60;;;19.70;46.00;;;;;;4988256;28;20477;-67
2021/01/20 10:20:38;;;;;;;2.03;1.87;;;19.70;45.70;;;;;;4990464;28;20524;-67
2021/01/20 10:23:05;;;;;;;1.73;1.50;;;19.70;45.60;;;;;;4989808;28;21274;-67
2021/01/20 10:25:32;;;;;;;1.57;1.50;;;19.80;45.50;;;;;;4993260;28;20508;-67
2021/01/20 10:27:59;;;;;;;1.53;1.40;;;19.80;45.40;;;;;;4990451;28;20515;-68
2021/01/20 10:30:26;;;;;;;2.67;1.50;;;19.80;45.20;;;;;;4990564;28;20528;-68
2021/01/20 10:32:52;;;;;;;1.80;1.70;;;19.90;45.30;;;;;;4988485;28;20496;-67
2021/01/20 10:35:19;;;;;;;1.30;1.30;;;19.90;45.20;;;;;;4989446;28;20551;-67
2021/01/20 10:37:45;;;;;;;4.93;1.50;;;19.80;45.10;;;;;;4989238;28;20488;-67
2021/01/20 10:40:13;;;;;;;1.30;1.30;;;19.80;45.30;;;;;;4991318;28;20550;-67
2021/01/20 10:42:40;;;;;;;1.30;1.30;;;19.80;45.30;;;;;;4976001;28;21614;-67
2021/01/20 10:45:06;;;;;;;1.57;1.57;;;19.80;45.40;;;;;;4990739;28;20480;-67
2021/01/20 10:47:33;;;;;;;1.87;1.70;;;19.80;45.30;;;;;;4994832;28;20485;-67
2021/01/20 10:49:59;;;;;;;1.33;1.20;;;19.80;45.40;;;;;;4986935;28;20875;-67
2021/01/20 10:52:25;;;;;;;1.40;1.40;;;19.70;45.40;;;;;;4975014;28;20496;-67
2021/01/20 10:54:52;;;;;;;2.10;1.20;;;19.60;45.40;;;;;;4987064;28;20477;-67
2021/01/20 10:57:19;;;;;;;1.50;1.40;;;19.60;45.60;;;;;;4986922;28;20477;-67
2021/01/20 10:59:45;;;;;;;1.47;1.40;;;19.60;45.50;;;;;;4991362;28;20980;-67
2021/01/20 11:02:11;;;;;;;1.53;1.43;;;19.60;45.70;;;;;;4988195;28;20489;-66
2021/01/20 11:04:37;;;;;;;1.30;1.30;;;19.60;45.60;;;;;;4988700;28;20481;-67
2021/01/20 11:07:03;;;;;;;1.93;1.17;;;19.60;45.40;;;;;;4990631;28;20492;-66
2021/01/20 11:09:30;;;;;;;1.47;1.37;;;19.60;45.40;;;;;;4987894;28;20491;-66
2021/01/20 11:11:57;;;;;;;2.90;1.80;;;19.70;45.50;;;;;;4987731;28;20940;-67
2021/01/20 11:14:24;;;;;;;1.80;1.63;;;19.70;45.20;;;;;;4990269;28;20528;-67
2021/01/20 11:16:51;;;;;;;1.40;1.30;;;19.70;45.30;;;;;;4988572;28;20493;-67
2021/01/20 11:19:18;;;;;;;1.60;1.50;;;19.60;45.10;;;;;;4988589;28;21678;-67
2021/01/20 11:21:44;;;;;;;1.20;1.20;;;19.70;45.30;;;;;;4984984;28;20485;-67
2021/01/20 11:24:10;;;;;;;1.27;1.17;;;19.60;45.20;;;;;;4977561;28;20547;-67
2021/01/20 11:26:36;;;;;;;2.20;1.37;;;19.70;45.30;;;;;;4991199;28;21536;-68
2021/01/20 11:29:02;;;;;;;0.93;0.93;;;19.70;46.20;;;;;;4990129;28;20863;-67
2021/01/20 11:31:30;;;;;;;1.23;1.23;;;19.60;45.50;;;;;;4985209;28;20484;-67
2021/01/20 11:33:57;;;;;;;1.93;1.83;;;19.60;45.40;;;;;;4987418;28;20865;-68
2021/01/20 11:36:23;;;;;;;1.67;1.67;;;19.60;45.50;;;;;;4987985;28;20591;-67
2021/01/20 11:38:49;;;;;;;0.97;0.97;;;19.60;45.40;;;;;;4993804;28;20534;-68
2021/01/20 11:41:15;;;;;;;11.40;2.20;;;19.70;45.30;;;;;;4988864;28;22012;-68
2021/01/20 11:43:41;;;;;;;8.53;1.50;;;19.70;45.50;;;;;;4989112;28;20876;-67
2021/01/20 11:46:08;;;;;;;8.87;1.57;;;19.70;45.80;;;;;;4975767;28;20481;-67
2021/01/20 11:48:35;;;;;;;2.00;1.60;;;19.70;45.90;;;;;;4987351;28;20492;-68
2021/01/20 11:51:01;;;;;;;2.30;1.27;;;19.60;46.00;;;;;;4993283;28;20880;-68
2021/01/20 11:53:27;;;;;;;3.43;1.40;;;19.60;46.10;;;;;;4985735;28;20493;-67
2021/01/20 11:55:53;;;;;;;1.43;1.10;;;19.60;45.90;;;;;;4989164;28;20494;-68
2021/01/20 11:58:19;;;;;;;3.17;1.70;;;19.60;46.20;;;;;;4987576;28;20504;-68
2021/01/20 12:00:46;;;;;;;2.40;2.20;;;19.60;46.10;;;;;;4987385;28;20546;-68
2021/01/20 12:03:12;;;;;;;2.23;1.60;;;19.60;46.00;;;;;;4985323;28;20480;-68
2021/01/20 12:05:39;;;;;;;1.43;1.40;;;19.60;45.90;;;;;;4986168;28;20551;-68
2021/01/20 12:08:05;;;;;;;6.10;1.53;;;19.60;45.80;;;;;;4988413;28;20487;-67
2021/01/20 12:10:31;;;;;;;1.47;1.30;;;19.60;45.80;;;;;;4987220;28;21133;-68
2021/01/20 12:12:58;;;;;;;1.43;1.43;;;19.60;45.90;;;;;;4985537;28;20854;-68
2021/01/20 12:15:24;;;;;;;2.27;1.20;;;19.60;45.90;;;;;;4988781;28;20472;-68
2021/01/20 12:17:50;;;;;;;1.03;1.03;;;19.60;45.90;;;;;;4979086;28;20492;-67
2021/01/20 12:20:17;;;;;;;1.37;1.33;;;19.60;45.80;;;;;;5002166;28;20484;-67
2021/01/20 12:22:44;;;;;;;2.70;1.40;;;19.60;45.80;;;;;;4989115;28;20530;-67
2021/01/20 12:25:10;;;;;;;1.90;1.53;;;19.60;45.80;;;;;;4988441;28;20480;-68
2021/01/20 12:27:39;;;;;;;1.47;1.00;;;19.60;45.70;;;;;;4991811;28;21699;-68
2021/01/20 12:30:06;;;;;;;1.27;1.27;;;19.70;46.60;;;;;;4991211;28;20508;-68
2021/01/20 12:32:32;;;;;;;1.57;1.50;;;19.60;45.70;;;;;;4986637;28;20497;-67
2021/01/20 12:34:58;;;;;;;1.33;1.23;;;19.70;45.80;;;;;;4991198;28;20499;-68
2021/01/20 12:37:25;;;;;;;1.60;1.50;;;19.70;45.70;;;;;;4988130;28;20488;-67
2021/01/20 12:39:52;;;;;;;2.90;1.40;;;19.70;45.80;;;;;;4982892;28;20542;-68
2021/01/20 12:42:18;;;;;;;1.17;1.17;;;19.60;45.80;;;;;;4978102;28;20477;-67
2021/01/20 12:44:44;;;;;;;2.70;1.27;;;19.60;45.80;;;;;;5001670;28;20476;-69
2021/01/20 12:47:10;;;;;;;1.90;1.20;;;19.60;45.90;;;;;;4982655;28;20479;-69